sensor_id;sensor_type;location;lat;lon;timestamp;P1;durP1;ratioP1;P2;durP2;ratioP2
6342;SDS011;3204;42.698;23.298;2023-06-22T00:01:57;12.52;;;11.48;;
6342;SDS011;3204;42.698;23.298;2023-06-22T00:04:23;13.25;;;12.18;;
6342;SDS011;3204;42.698;23.298;2023-06-22T00:06:48;14.15;;;12.68;;
6342;SDS011;3204;42.698;23.298;2023-06-22T00:09:14;13.50;;;12.00;;
6342;SDS011;3204;42.698;23.298;2023-06-22T00:11:39;13.60;;;12.23;;
6342;SDS011;3204;42.698;23.298;2023-06-22T00:14:05;12.85;;;11.88;;
6342;SDS011;3204;42.698;23.298;2023-06-22T00:16:31;16.38;;;12.88;;
6342;SDS011;3204;42.698;23.298;2023-06-22T00:18:57;14.13;;;11.65;;
6342;SDS011;3204;42.698;23.298;2023-06-22T00:21:25;13.60;;;12.25;;
6342;SDS011;3204;42.698;23.298;2023-06-22T00:23:51;13.45;;;12.25;;
6342;SDS011;3204;42.698;23.298;2023-06-22T00:26:16;13.60;;;12.15;;
6342;SDS011;3204;42.698;23.298;2023-06-22T00:28:42;13.18;;;12.20;;
6342;SDS011;3204;42.698;23.298;2023-06-22T00:31:07;13.32;;;12.23;;
6342;SDS011;3204;42.698;23.298;2023-06-22T00:33:33;13.38;;;12.38;;
6342;SDS011;3204;42.698;23.298;2023-06-22T00:35:58;13.40;;;12.40;;
6342;SDS011;3204;42.698;23.298;2023-06-22T00:38:24;13.60;;;12.27;;
6342;SDS011;3204;42.698;23.298;2023-06-22T00:40:49;14.38;;;12.95;;
6342;SDS011;3204;42.698;23.298;2023-06-22T00:43:15;14.40;;;12.85;;
6342;SDS011;3204;42.698;23.298;2023-06-22T00:45:40;13.98;;;12.60;;
6342;SDS011;3204;42.698;23.298;2023-06-22T00:48:06;13.98;;;12.77;;
6342;SDS011;3204;42.698;23.298;2023-06-22T00:50:33;15.63;;;12.95;;
6342;SDS011;3204;42.698;23.298;2023-06-22T00:53:04;13.98;;;12.82;;
6342;SDS011;3204;42.698;23.298;2023-06-22T00:55:41;13.70;;;12.35;;
6342;SDS011;3204;42.698;23.298;2023-06-22T00:58:12;13.98;;;12.80;;
6342;SDS011;3204;42.698;23.298;2023-06-22T01:00:38;14.77;;;13.18;;
6342;SDS011;3204;42.698;23.298;2023-06-22T01:03:07;14.15;;;12.98;;
6342;SDS011;3204;42.698;23.298;2023-06-22T01:05:35;15.10;;;13.00;;
6342;SDS011;3204;42.698;23.298;2023-06-22T01:10:53;15.07;;;13.48;;
6342;SDS011;3204;42.698;23.298;2023-06-22T01:16:30;14.73;;;13.20;;
6342;SDS011;3204;42.698;23.298;2023-06-22T01:18:57;16.13;;;13.45;;
6342;SDS011;3204;42.698;23.298;2023-06-22T01:21:28;15.00;;;13.60;;
6342;SDS011;3204;42.698;23.298;2023-06-22T01:29:01;16.52;;;13.50;;
6342;SDS011;3204;42.698;23.298;2023-06-22T01:31:29;13.95;;;12.93;;
6342;SDS011;3204;42.698;23.298;2023-06-22T01:33:59;13.73;;;12.63;;
6342;SDS011;3204;42.698;23.298;2023-06-22T01:36:27;11.45;;;10.55;;
6342;SDS011;3204;42.698;23.298;2023-06-22T01:38:54;11.75;;;10.75;;
6342;SDS011;3204;42.698;23.298;2023-06-22T01:41:24;11.90;;;10.70;;
6342;SDS011;3204;42.698;23.298;2023-06-22T01:43:51;11.27;;;10.23;;
6342;SDS011;3204;42.698;23.298;2023-06-22T01:46:17;11.35;;;10.30;;
6342;SDS011;3204;42.698;23.298;2023-06-22T01:48:44;11.27;;;10.40;;
6342;SDS011;3204;42.698;23.298;2023-06-22T01:51:10;10.55;;;9.95;;
6342;SDS011;3204;42.698;23.298;2023-06-22T01:53:36;11.45;;;10.38;;
6342;SDS011;3204;42.698;23.298;2023-06-22T01:56:02;10.50;;;9.65;;
6342;SDS011;3204;42.698;23.298;2023-06-22T01:58:28;10.93;;;10.02;;
6342;SDS011;3204;42.698;23.298;2023-06-22T02:01:10;11.93;;;10.80;;
6342;SDS011;3204;42.698;23.298;2023-06-22T02:03:42;15.98;;;14.38;;
6342;SDS011;3204;42.698;23.298;2023-06-22T02:06:16;15.57;;;14.18;;
6342;SDS011;3204;42.698;23.298;2023-06-22T02:08:47;15.80;;;14.38;;
6342;SDS011;3204;42.698;23.298;2023-06-22T02:11:16;24.42;;;15.50;;
6342;SDS011;3204;42.698;23.298;2023-06-22T02:13:44;16.98;;;14.27;;
6342;SDS011;3204;42.698;23.298;2023-06-22T02:16:11;17.38;;;12.82;;
6342;SDS011;3204;42.698;23.298;2023-06-22T02:18:38;19.17;;;12.75;;
6342;SDS011;3204;42.698;23.298;2023-06-22T02:21:05;15.10;;;12.48;;
6342;SDS011;3204;42.698;23.298;2023-06-22T02:23:31;14.52;;;12.70;;
6342;SDS011;3204;42.698;23.298;2023-06-22T02:25:59;13.95;;;12.65;;
6342;SDS011;3204;42.698;23.298;2023-06-22T02:28:25;14.07;;;12.70;;
6342;SDS011;3204;42.698;23.298;2023-06-22T02:30:51;15.32;;;12.02;;
6342;SDS011;3204;42.698;23.298;2023-06-22T02:33:16;15.43;;;13.68;;
6342;SDS011;3204;42.698;23.298;2023-06-22T02:35:42;13.95;;;12.63;;
6342;SDS011;3204;42.698;23.298;2023-06-22T02:38:10;15.05;;;13.50;;
6342;SDS011;3204;42.698;23.298;2023-06-22T02:40:36;14.65;;;13.35;;
6342;SDS011;3204;42.698;23.298;2023-06-22T02:43:01;15.02;;;13.18;;
6342;SDS011;3204;42.698;23.298;2023-06-22T02:45:28;16.25;;;13.32;;
6342;SDS011;3204;42.698;23.298;2023-06-22T02:47:53;14.93;;;13.52;;
6342;SDS011;3204;42.698;23.298;2023-06-22T02:50:20;14.55;;;13.25;;
6342;SDS011;3204;42.698;23.298;2023-06-22T02:52:45;16.25;;;12.80;;
6342;SDS011;3204;42.698;23.298;2023-06-22T02:55:11;13.63;;;12.45;;
6342;SDS011;3204;42.698;23.298;2023-06-22T02:57:37;13.65;;;12.55;;
6342;SDS011;3204;42.698;23.298;2023-06-22T03:00:03;16.88;;;13.82;;
6342;SDS011;3204;42.698;23.298;2023-06-22T03:02:41;17.15;;;14.02;;
6342;SDS011;3204;42.698;23.298;2023-06-22T03:05:07;16.80;;;13.00;;
6342;SDS011;3204;42.698;23.298;2023-06-22T03:07:41;18.35;;;13.63;;
6342;SDS011;3204;42.698;23.298;2023-06-22T03:10:08;17.48;;;14.38;;
6342;SDS011;3204;42.698;23.298;2023-06-22T03:12:37;17.50;;;14.00;;
6342;SDS011;3204;42.698;23.298;2023-06-22T03:15:04;14.95;;;13.68;;
6342;SDS011;3204;42.698;23.298;2023-06-22T03:17:34;15.68;;;13.25;;
6342;SDS011;3204;42.698;23.298;2023-06-22T03:20:04;14.90;;;13.63;;
6342;SDS011;3204;42.698;23.298;2023-06-22T03:22:39;15.68;;;13.32;;
6342;SDS011;3204;42.698;23.298;2023-06-22T03:25:06;16.50;;;13.43;;
6342;SDS011;3204;42.698;23.298;2023-06-22T03:27:36;13.98;;;12.68;;
6342;SDS011;3204;42.698;23.298;2023-06-22T03:30:01;14.63;;;13.05;;
6342;SDS011;3204;42.698;23.298;2023-06-22T03:32:27;13.65;;;12.48;;
6342;SDS011;3204;42.698;23.298;2023-06-22T03:34:53;13.50;;;12.20;;
6342;SDS011;3204;42.698;23.298;2023-06-22T03:37:18;12.63;;;11.52;;
6342;SDS011;3204;42.698;23.298;2023-06-22T03:39:44;14.68;;;12.15;;
6342;SDS011;3204;42.698;23.298;2023-06-22T03:42:09;12.43;;;11.48;;
6342;SDS011;3204;42.698;23.298;2023-06-22T03:44:35;13.93;;;12.50;;
6342;SDS011;3204;42.698;23.298;2023-06-22T03:47:01;13.35;;;11.73;;
6342;SDS011;3204;42.698;23.298;2023-06-22T03:49:28;13.65;;;12.23;;
6342;SDS011;3204;42.698;23.298;2023-06-22T03:51:53;13.80;;;12.40;;
6342;SDS011;3204;42.698;23.298;2023-06-22T03:54:18;13.88;;;12.27;;
6342;SDS011;3204;42.698;23.298;2023-06-22T03:56:44;17.35;;;13.43;;
6342;SDS011;3204;42.698;23.298;2023-06-22T03:59:09;14.88;;;13.32;;
6342;SDS011;3204;42.698;23.298;2023-06-22T04:01:35;16.27;;;12.43;;
6342;SDS011;3204;42.698;23.298;2023-06-22T04:04:01;14.00;;;12.80;;
6342;SDS011;3204;42.698;23.298;2023-06-22T04:06:27;13.88;;;12.52;;
6342;SDS011;3204;42.698;23.298;2023-06-22T04:08:52;14.10;;;12.80;;
6342;SDS011;3204;42.698;23.298;2023-06-22T04:11:18;14.18;;;12.77;;
6342;SDS011;3204;42.698;23.298;2023-06-22T04:13:43;14.63;;;13.25;;
6342;SDS011;3204;42.698;23.298;2023-06-22T04:16:09;18.40;;;13.00;;
6342;SDS011;3204;42.698;23.298;2023-06-22T04:18:35;14.88;;;12.68;;
6342;SDS011;3204;42.698;23.298;2023-06-22T04:21:01;14.88;;;12.93;;
6342;SDS011;3204;42.698;23.298;2023-06-22T04:23:27;15.25;;;13.57;;
6342;SDS011;3204;42.698;23.298;2023-06-22T04:25:52;19.00;;;13.77;;
6342;SDS011;3204;42.698;23.298;2023-06-22T04:28:17;15.52;;;13.93;;
6342;SDS011;3204;42.698;23.298;2023-06-22T04:30:43;15.70;;;13.88;;
6342;SDS011;3204;42.698;23.298;2023-06-22T04:33:14;14.93;;;13.32;;
6342;SDS011;3204;42.698;23.298;2023-06-22T04:35:40;14.50;;;13.30;;
6342;SDS011;3204;42.698;23.298;2023-06-22T04:38:06;15.55;;;13.98;;
6342;SDS011;3204;42.698;23.298;2023-06-22T04:40:32;20.02;;;14.27;;
6342;SDS011;3204;42.698;23.298;2023-06-22T04:42:58;15.60;;;14.15;;
6342;SDS011;3204;42.698;23.298;2023-06-22T04:45:27;15.73;;;14.32;;
6342;SDS011;3204;42.698;23.298;2023-06-22T04:47:53;20.27;;;15.05;;
6342;SDS011;3204;42.698;23.298;2023-06-22T04:50:18;19.23;;;14.57;;
6342;SDS011;3204;42.698;23.298;2023-06-22T04:52:46;16.55;;;14.80;;
6342;SDS011;3204;42.698;23.298;2023-06-22T04:55:12;15.55;;;14.02;;
6342;SDS011;3204;42.698;23.298;2023-06-22T04:57:37;16.42;;;14.82;;
6342;SDS011;3204;42.698;23.298;2023-06-22T05:00:04;16.42;;;14.85;;
6342;SDS011;3204;42.698;23.298;2023-06-22T05:02:40;16.40;;;14.82;;
6342;SDS011;3204;42.698;23.298;2023-06-22T05:05:05;16.23;;;14.65;;
6342;SDS011;3204;42.698;23.298;2023-06-22T05:07:33;16.60;;;14.30;;
6342;SDS011;3204;42.698;23.298;2023-06-22T05:10:02;16.13;;;14.52;;
6342;SDS011;3204;42.698;23.298;2023-06-22T05:12:28;16.98;;;15.15;;
6342;SDS011;3204;42.698;23.298;2023-06-22T05:14:54;20.75;;;15.20;;
6342;SDS011;3204;42.698;23.298;2023-06-22T05:17:20;17.05;;;15.48;;
6342;SDS011;3204;42.698;23.298;2023-06-22T05:19:45;19.77;;;14.73;;
6342;SDS011;3204;42.698;23.298;2023-06-22T05:22:16;16.35;;;14.75;;
6342;SDS011;3204;42.698;23.298;2023-06-22T05:24:42;17.70;;;15.68;;
6342;SDS011;3204;42.698;23.298;2023-06-22T05:27:09;18.10;;;16.15;;
6342;SDS011;3204;42.698;23.298;2023-06-22T05:29:36;16.95;;;15.43;;
6342;SDS011;3204;42.698;23.298;2023-06-22T05:32:01;19.38;;;16.33;;
6342;SDS011;3204;42.698;23.298;2023-06-22T05:34:27;20.13;;;16.27;;
6342;SDS011;3204;42.698;23.298;2023-06-22T05:36:53;20.85;;;15.60;;
6342;SDS011;3204;42.698;23.298;2023-06-22T05:39:18;18.77;;;15.77;;
6342;SDS011;3204;42.698;23.298;2023-06-22T05:41:44;19.83;;;16.38;;
6342;SDS011;3204;42.698;23.298;2023-06-22T05:44:10;18.33;;;16.20;;
6342;SDS011;3204;42.698;23.298;2023-06-22T05:46:36;17.60;;;15.80;;
6342;SDS011;3204;42.698;23.298;2023-06-22T05:49:02;19.00;;;16.98;;
6342;SDS011;3204;42.698;23.298;2023-06-22T05:51:27;19.23;;;15.27;;
6342;SDS011;3204;42.698;23.298;2023-06-22T05:53:53;17.73;;;15.20;;
6342;SDS011;3204;42.698;23.298;2023-06-22T05:56:18;16.33;;;14.77;;
6342;SDS011;3204;42.698;23.298;2023-06-22T05:58:44;17.10;;;15.45;;
6342;SDS011;3204;42.698;23.298;2023-06-22T06:01:10;19.17;;;16.27;;
6342;SDS011;3204;42.698;23.298;2023-06-22T06:03:36;18.10;;;16.40;;
6342;SDS011;3204;42.698;23.298;2023-06-22T06:06:06;18.35;;;16.30;;
6342;SDS011;3204;42.698;23.298;2023-06-22T06:08:32;18.05;;;15.40;;
6342;SDS011;3204;42.698;23.298;2023-06-22T06:10:57;19.00;;;16.67;;
6342;SDS011;3204;42.698;23.298;2023-06-22T06:13:23;17.77;;;15.75;;
6342;SDS011;3204;42.698;23.298;2023-06-22T06:15:48;18.58;;;16.50;;
6342;SDS011;3204;42.698;23.298;2023-06-22T06:18:16;22.00;;;16.73;;
6342;SDS011;3204;42.698;23.298;2023-06-22T06:20:41;18.02;;;16.17;;
6342;SDS011;3204;42.698;23.298;2023-06-22T06:23:07;17.83;;;16.23;;
6342;SDS011;3204;42.698;23.298;2023-06-22T06:25:32;18.08;;;16.17;;
6342;SDS011;3204;42.698;23.298;2023-06-22T06:27:58;17.70;;;16.02;;
6342;SDS011;3204;42.698;23.298;2023-06-22T06:30:23;16.65;;;14.93;;
6342;SDS011;3204;42.698;23.298;2023-06-22T06:32:49;16.35;;;14.82;;
6342;SDS011;3204;42.698;23.298;2023-06-22T06:35:15;17.45;;;15.18;;
6342;SDS011;3204;42.698;23.298;2023-06-22T06:37:43;15.35;;;13.88;;
6342;SDS011;3204;42.698;23.298;2023-06-22T06:40:10;14.40;;;13.10;;
6342;SDS011;3204;42.698;23.298;2023-06-22T06:42:38;15.30;;;13.75;;
6342;SDS011;3204;42.698;23.298;2023-06-22T06:45:15;15.00;;;13.63;;
6342;SDS011;3204;42.698;23.298;2023-06-22T06:47:42;16.17;;;14.48;;
6342;SDS011;3204;42.698;23.298;2023-06-22T06:50:07;15.27;;;13.98;;
6342;SDS011;3204;42.698;23.298;2023-06-22T06:52:34;15.50;;;13.95;;
6342;SDS011;3204;42.698;23.298;2023-06-22T06:54:59;16.20;;;14.68;;
6342;SDS011;3204;42.698;23.298;2023-06-22T06:57:25;18.75;;;14.70;;
6342;SDS011;3204;42.698;23.298;2023-06-22T06:59:54;15.52;;;13.82;;
6342;SDS011;3204;42.698;23.298;2023-06-22T07:02:21;15.02;;;13.60;;
6342;SDS011;3204;42.698;23.298;2023-06-22T07:04:46;16.25;;;14.60;;
6342;SDS011;3204;42.698;23.298;2023-06-22T07:07:12;15.60;;;14.18;;
6342;SDS011;3204;42.698;23.298;2023-06-22T07:09:37;16.10;;;14.40;;
6342;SDS011;3204;42.698;23.298;2023-06-22T07:12:03;15.40;;;13.95;;
6342;SDS011;3204;42.698;23.298;2023-06-22T07:14:29;15.40;;;13.80;;
6342;SDS011;3204;42.698;23.298;2023-06-22T07:16:56;16.45;;;14.10;;
6342;SDS011;3204;42.698;23.298;2023-06-22T07:19:25;15.55;;;13.93;;
6342;SDS011;3204;42.698;23.298;2023-06-22T07:21:54;15.15;;;13.90;;
6342;SDS011;3204;42.698;23.298;2023-06-22T07:24:20;16.52;;;13.23;;
6342;SDS011;3204;42.698;23.298;2023-06-22T07:26:47;13.88;;;12.88;;
6342;SDS011;3204;42.698;23.298;2023-06-22T07:29:14;16.02;;;14.43;;
6342;SDS011;3204;42.698;23.298;2023-06-22T07:31:40;15.20;;;13.32;;
6342;SDS011;3204;42.698;23.298;2023-06-22T07:34:06;15.43;;;12.90;;
6342;SDS011;3204;42.698;23.298;2023-06-22T07:36:32;13.32;;;12.35;;
6342;SDS011;3204;42.698;23.298;2023-06-22T07:38:57;14.50;;;13.13;;
6342;SDS011;3204;42.698;23.298;2023-06-22T07:41:22;15.07;;;12.75;;
6342;SDS011;3204;42.698;23.298;2023-06-22T07:43:48;16.10;;;13.30;;
6342;SDS011;3204;42.698;23.298;2023-06-22T07:46:14;16.95;;;13.55;;
6342;SDS011;3204;42.698;23.298;2023-06-22T07:48:40;14.43;;;12.93;;
6342;SDS011;3204;42.698;23.298;2023-06-22T07:51:07;19.90;;;12.80;;
6342;SDS011;3204;42.698;23.298;2023-06-22T07:53:32;14.52;;;13.13;;
6342;SDS011;3204;42.698;23.298;2023-06-22T07:55:58;16.45;;;14.80;;
6342;SDS011;3204;42.698;23.298;2023-06-22T07:58:23;21.98;;;13.13;;
6342;SDS011;3204;42.698;23.298;2023-06-22T08:00:49;15.77;;;13.38;;
6342;SDS011;3204;42.698;23.298;2023-06-22T08:03:14;15.07;;;13.10;;
6342;SDS011;3204;42.698;23.298;2023-06-22T08:05:40;15.30;;;13.20;;
6342;SDS011;3204;42.698;23.298;2023-06-22T08:08:05;13.73;;;12.38;;
6342;SDS011;3204;42.698;23.298;2023-06-22T08:10:31;14.60;;;12.52;;
6342;SDS011;3204;42.698;23.298;2023-06-22T08:12:56;13.15;;;11.73;;
6342;SDS011;3204;42.698;23.298;2023-06-22T08:15:22;14.60;;;12.93;;
6342;SDS011;3204;42.698;23.298;2023-06-22T08:17:47;13.07;;;11.77;;
6342;SDS011;3204;42.698;23.298;2023-06-22T08:20:13;12.77;;;11.68;;
6342;SDS011;3204;42.698;23.298;2023-06-22T08:22:39;12.35;;;11.23;;
6342;SDS011;3204;42.698;23.298;2023-06-22T08:25:05;13.18;;;12.02;;
6342;SDS011;3204;42.698;23.298;2023-06-22T08:27:31;12.57;;;11.45;;
6342;SDS011;3204;42.698;23.298;2023-06-22T08:29:57;12.82;;;11.68;;
6342;SDS011;3204;42.698;23.298;2023-06-22T08:32:24;12.80;;;11.60;;
6342;SDS011;3204;42.698;23.298;2023-06-22T08:34:52;12.38;;;11.20;;
6342;SDS011;3204;42.698;23.298;2023-06-22T08:37:18;12.55;;;11.45;;
6342;SDS011;3204;42.698;23.298;2023-06-22T08:39:44;12.60;;;11.63;;
6342;SDS011;3204;42.698;23.298;2023-06-22T08:42:09;12.23;;;11.30;;
6342;SDS011;3204;42.698;23.298;2023-06-22T08:44:34;13.20;;;12.02;;
6342;SDS011;3204;42.698;23.298;2023-06-22T08:47:00;12.82;;;11.73;;
6342;SDS011;3204;42.698;23.298;2023-06-22T08:49:25;12.48;;;11.57;;
6342;SDS011;3204;42.698;23.298;2023-06-22T08:51:51;14.00;;;12.98;;
6342;SDS011;3204;42.698;23.298;2023-06-22T08:54:18;11.45;;;10.63;;
6342;SDS011;3204;42.698;23.298;2023-06-22T08:56:43;11.68;;;10.68;;
6342;SDS011;3204;42.698;23.298;2023-06-22T08:59:09;10.77;;;10.10;;
6342;SDS011;3204;42.698;23.298;2023-06-22T09:01:34;11.02;;;10.32;;
6342;SDS011;3204;42.698;23.298;2023-06-22T09:04:00;10.45;;;9.73;;
6342;SDS011;3204;42.698;23.298;2023-06-22T09:06:26;11.80;;;10.65;;
6342;SDS011;3204;42.698;23.298;2023-06-22T09:08:51;11.68;;;10.02;;
6342;SDS011;3204;42.698;23.298;2023-06-22T09:11:17;10.48;;;9.98;;
6342;SDS011;3204;42.698;23.298;2023-06-22T09:13:42;9.85;;;9.23;;
6342;SDS011;3204;42.698;23.298;2023-06-22T09:16:08;10.02;;;9.20;;
6342;SDS011;3204;42.698;23.298;2023-06-22T09:18:33;10.50;;;9.82;;
6342;SDS011;3204;42.698;23.298;2023-06-22T09:20:59;10.15;;;9.10;;
6342;SDS011;3204;42.698;23.298;2023-06-22T09:23:24;9.05;;;8.65;;
6342;SDS011;3204;42.698;23.298;2023-06-22T09:25:50;9.05;;;8.50;;
6342;SDS011;3204;42.698;23.298;2023-06-22T09:28:15;9.95;;;9.25;;
6342;SDS011;3204;42.698;23.298;2023-06-22T09:30:42;10.35;;;9.55;;
6342;SDS011;3204;42.698;23.298;2023-06-22T09:33:08;9.32;;;8.82;;
6342;SDS011;3204;42.698;23.298;2023-06-22T09:35:34;8.60;;;8.07;;
6342;SDS011;3204;42.698;23.298;2023-06-22T09:37:59;10.30;;;9.70;;
6342;SDS011;3204;42.698;23.298;2023-06-22T09:40:25;9.48;;;8.77;;
6342;SDS011;3204;42.698;23.298;2023-06-22T09:42:50;10.30;;;9.60;;
6342;SDS011;3204;42.698;23.298;2023-06-22T09:45:15;10.05;;;9.35;;
6342;SDS011;3204;42.698;23.298;2023-06-22T09:47:41;9.60;;;9.10;;
6342;SDS011;3204;42.698;23.298;2023-06-22T09:50:07;9.95;;;9.32;;
6342;SDS011;3204;42.698;23.298;2023-06-22T09:52:33;10.45;;;9.70;;
6342;SDS011;3204;42.698;23.298;2023-06-22T09:54:59;10.75;;;9.73;;
6342;SDS011;3204;42.698;23.298;2023-06-22T09:57:24;10.02;;;9.48;;
6342;SDS011;3204;42.698;23.298;2023-06-22T09:59:50;11.32;;;10.38;;
6342;SDS011;3204;42.698;23.298;2023-06-22T10:02:15;10.70;;;9.90;;
6342;SDS011;3204;42.698;23.298;2023-06-22T10:04:42;10.07;;;9.52;;
6342;SDS011;3204;42.698;23.298;2023-06-22T10:07:07;9.82;;;9.10;;
6342;SDS011;3204;42.698;23.298;2023-06-22T10:09:33;10.05;;;9.45;;
6342;SDS011;3204;42.698;23.298;2023-06-22T10:11:58;10.32;;;9.60;;
6342;SDS011;3204;42.698;23.298;2023-06-22T10:14:24;9.98;;;9.25;;
6342;SDS011;3204;42.698;23.298;2023-06-22T10:16:51;10.45;;;9.65;;
6342;SDS011;3204;42.698;23.298;2023-06-22T10:19:17;10.10;;;9.50;;
6342;SDS011;3204;42.698;23.298;2023-06-22T10:21:43;9.95;;;9.20;;
6342;SDS011;3204;42.698;23.298;2023-06-22T10:24:08;10.57;;;9.88;;
6342;SDS011;3204;42.698;23.298;2023-06-22T10:26:34;10.73;;;10.20;;
6342;SDS011;3204;42.698;23.298;2023-06-22T10:29:00;10.68;;;9.88;;
6342;SDS011;3204;42.698;23.298;2023-06-22T10:31:27;11.63;;;10.48;;
6342;SDS011;3204;42.698;23.298;2023-06-22T10:33:53;10.00;;;9.35;;
6342;SDS011;3204;42.698;23.298;2023-06-22T10:36:19;10.13;;;9.50;;
6342;SDS011;3204;42.698;23.298;2023-06-22T10:38:45;10.23;;;9.57;;
6342;SDS011;3204;42.698;23.298;2023-06-22T10:41:12;10.60;;;9.80;;
6342;SDS011;3204;42.698;23.298;2023-06-22T10:43:38;10.40;;;9.57;;
6342;SDS011;3204;42.698;23.298;2023-06-22T10:46:03;10.35;;;9.77;;
6342;SDS011;3204;42.698;23.298;2023-06-22T10:48:28;10.25;;;9.60;;
6342;SDS011;3204;42.698;23.298;2023-06-22T10:50:54;10.82;;;10.05;;
6342;SDS011;3204;42.698;23.298;2023-06-22T10:53:20;10.15;;;9.43;;
6342;SDS011;3204;42.698;23.298;2023-06-22T10:55:46;10.25;;;9.40;;
6342;SDS011;3204;42.698;23.298;2023-06-22T10:58:12;10.77;;;10.18;;
6342;SDS011;3204;42.698;23.298;2023-06-22T11:00:37;9.75;;;9.15;;
6342;SDS011;3204;42.698;23.298;2023-06-22T11:03:03;9.98;;;9.32;;
6342;SDS011;3204;42.698;23.298;2023-06-22T11:05:28;10.30;;;9.57;;
6342;SDS011;3204;42.698;23.298;2023-06-22T11:07:54;10.23;;;9.65;;
6342;SDS011;3204;42.698;23.298;2023-06-22T11:10:19;10.10;;;9.45;;
6342;SDS011;3204;42.698;23.298;2023-06-22T11:12:45;10.50;;;9.73;;
6342;SDS011;3204;42.698;23.298;2023-06-22T11:15:10;10.77;;;9.95;;
6342;SDS011;3204;42.698;23.298;2023-06-22T11:17:36;10.05;;;9.55;;
6342;SDS011;3204;42.698;23.298;2023-06-22T11:20:01;12.07;;;11.23;;
6342;SDS011;3204;42.698;23.298;2023-06-22T11:22:30;10.93;;;10.23;;
6342;SDS011;3204;42.698;23.298;2023-06-22T11:24:58;11.07;;;10.18;;
6342;SDS011;3204;42.698;23.298;2023-06-22T11:27:24;10.95;;;10.18;;
6342;SDS011;3204;42.698;23.298;2023-06-22T11:29:49;10.10;;;9.60;;
6342;SDS011;3204;42.698;23.298;2023-06-22T11:32:15;10.25;;;9.63;;
6342;SDS011;3204;42.698;23.298;2023-06-22T11:34:40;10.73;;;9.93;;
6342;SDS011;3204;42.698;23.298;2023-06-22T11:37:06;10.73;;;10.02;;
6342;SDS011;3204;42.698;23.298;2023-06-22T11:39:31;10.75;;;10.00;;
6342;SDS011;3204;42.698;23.298;2023-06-22T11:41:58;11.13;;;10.23;;
6342;SDS011;3204;42.698;23.298;2023-06-22T11:44:24;10.25;;;9.65;;
6342;SDS011;3204;42.698;23.298;2023-06-22T11:46:49;10.45;;;9.52;;
6342;SDS011;3204;42.698;23.298;2023-06-22T11:49:15;11.15;;;9.90;;
6342;SDS011;3204;42.698;23.298;2023-06-22T11:51:40;10.43;;;9.75;;
6342;SDS011;3204;42.698;23.298;2023-06-22T11:54:05;13.68;;;10.50;;
6342;SDS011;3204;42.698;23.298;2023-06-22T11:56:32;9.93;;;9.02;;
6342;SDS011;3204;42.698;23.298;2023-06-22T11:58:58;11.15;;;10.25;;
6342;SDS011;3204;42.698;23.298;2023-06-22T12:01:23;10.05;;;9.43;;
6342;SDS011;3204;42.698;23.298;2023-06-22T12:03:49;10.50;;;9.70;;
6342;SDS011;3204;42.698;23.298;2023-06-22T12:06:14;10.65;;;9.85;;
6342;SDS011;3204;42.698;23.298;2023-06-22T12:08:40;10.77;;;10.07;;
6342;SDS011;3204;42.698;23.298;2023-06-22T12:11:06;10.27;;;9.43;;
6342;SDS011;3204;42.698;23.298;2023-06-22T12:13:31;9.93;;;9.32;;
6342;SDS011;3204;42.698;23.298;2023-06-22T12:15:57;10.13;;;9.50;;
6342;SDS011;3204;42.698;23.298;2023-06-22T12:18:22;14.95;;;10.40;;
6342;SDS011;3204;42.698;23.298;2023-06-22T12:20:48;11.70;;;10.63;;
6342;SDS011;3204;42.698;23.298;2023-06-22T12:23:14;11.68;;;10.68;;
6342;SDS011;3204;42.698;23.298;2023-06-22T12:25:39;12.38;;;11.40;;
6342;SDS011;3204;42.698;23.298;2023-06-22T12:28:05;12.00;;;11.02;;
6342;SDS011;3204;42.698;23.298;2023-06-22T12:30:31;12.18;;;11.13;;
6342;SDS011;3204;42.698;23.298;2023-06-22T12:32:58;12.70;;;11.77;;
6342;SDS011;3204;42.698;23.298;2023-06-22T12:35:23;12.18;;;11.38;;
6342;SDS011;3204;42.698;23.298;2023-06-22T12:37:49;12.60;;;11.60;;
6342;SDS011;3204;42.698;23.298;2023-06-22T12:40:14;13.80;;;11.07;;
6342;SDS011;3204;42.698;23.298;2023-06-22T12:42:40;13.80;;;10.50;;
6342;SDS011;3204;42.698;23.298;2023-06-22T12:45:06;10.93;;;9.85;;
6342;SDS011;3204;42.698;23.298;2023-06-22T12:47:32;8.20;;;7.43;;
6342;SDS011;3204;42.698;23.298;2023-06-22T12:49:58;8.70;;;8.05;;
6342;SDS011;3204;42.698;23.298;2023-06-22T12:52:24;9.27;;;8.48;;
6342;SDS011;3204;42.698;23.298;2023-06-22T12:54:49;8.90;;;7.95;;
6342;SDS011;3204;42.698;23.298;2023-06-22T12:57:15;8.63;;;7.72;;
6342;SDS011;3204;42.698;23.298;2023-06-22T12:59:42;7.82;;;7.25;;
6342;SDS011;3204;42.698;23.298;2023-06-22T13:02:08;9.05;;;7.43;;
6342;SDS011;3204;42.698;23.298;2023-06-22T13:04:33;8.35;;;7.50;;
6342;SDS011;3204;42.698;23.298;2023-06-22T13:06:59;8.68;;;7.82;;
6342;SDS011;3204;42.698;23.298;2023-06-22T13:09:25;18.20;;;7.70;;
6342;SDS011;3204;42.698;23.298;2023-06-22T13:11:50;8.82;;;7.95;;
6342;SDS011;3204;42.698;23.298;2023-06-22T13:14:17;8.63;;;7.82;;
6342;SDS011;3204;42.698;23.298;2023-06-22T13:16:42;9.48;;;8.60;;
6342;SDS011;3204;42.698;23.298;2023-06-22T13:19:08;9.63;;;7.97;;
6342;SDS011;3204;42.698;23.298;2023-06-22T13:21:33;8.27;;;7.57;;
6342;SDS011;3204;42.698;23.298;2023-06-22T13:23:59;8.70;;;7.72;;
6342;SDS011;3204;42.698;23.298;2023-06-22T13:26:25;10.00;;;8.50;;
6342;SDS011;3204;42.698;23.298;2023-06-22T13:28:50;10.00;;;8.48;;
6342;SDS011;3204;42.698;23.298;2023-06-22T13:31:16;9.68;;;8.80;;
6342;SDS011;3204;42.698;23.298;2023-06-22T13:33:41;9.20;;;8.60;;
6342;SDS011;3204;42.698;23.298;2023-06-22T13:36:07;13.02;;;10.18;;
6342;SDS011;3204;42.698;23.298;2023-06-22T13:38:34;10.68;;;9.95;;
6342;SDS011;3204;42.698;23.298;2023-06-22T13:41:03;13.15;;;10.30;;
6342;SDS011;3204;42.698;23.298;2023-06-22T13:43:29;9.95;;;9.25;;
6342;SDS011;3204;42.698;23.298;2023-06-22T13:45:55;11.00;;;10.15;;
6342;SDS011;3204;42.698;23.298;2023-06-22T13:48:20;11.60;;;10.68;;
6342;SDS011;3204;42.698;23.298;2023-06-22T13:50:48;13.02;;;11.65;;
6342;SDS011;3204;42.698;23.298;2023-06-22T13:53:13;13.95;;;10.50;;
6342;SDS011;3204;42.698;23.298;2023-06-22T13:55:39;13.02;;;9.65;;
6342;SDS011;3204;42.698;23.298;2023-06-22T13:58:04;13.95;;;10.60;;
6342;SDS011;3204;42.698;23.298;2023-06-22T14:00:30;11.27;;;9.98;;
6342;SDS011;3204;42.698;23.298;2023-06-22T14:02:55;14.18;;;9.90;;
6342;SDS011;3204;42.698;23.298;2023-06-22T14:05:21;10.57;;;9.60;;
6342;SDS011;3204;42.698;23.298;2023-06-22T14:07:46;10.55;;;9.32;;
6342;SDS011;3204;42.698;23.298;2023-06-22T14:10:12;10.00;;;8.82;;
6342;SDS011;3204;42.698;23.298;2023-06-22T14:12:37;16.58;;;9.10;;
6342;SDS011;3204;42.698;23.298;2023-06-22T14:15:03;14.70;;;9.63;;
6342;SDS011;3204;42.698;23.298;2023-06-22T14:17:29;12.23;;;9.55;;
6342;SDS011;3204;42.698;23.298;2023-06-22T14:19:55;15.80;;;9.93;;
6342;SDS011;3204;42.698;23.298;2023-06-22T14:22:21;13.70;;;10.07;;
6342;SDS011;3204;42.698;23.298;2023-06-22T14:24:47;12.07;;;10.65;;
6342;SDS011;3204;42.698;23.298;2023-06-22T14:27:13;16.33;;;9.68;;
6342;SDS011;3204;42.698;23.298;2023-06-22T14:29:39;13.52;;;9.38;;
6342;SDS011;3204;42.698;23.298;2023-06-22T14:32:04;10.60;;;9.50;;
6342;SDS011;3204;42.698;23.298;2023-06-22T14:34:31;10.55;;;9.40;;
6342;SDS011;3204;42.698;23.298;2023-06-22T14:37:05;13.88;;;10.45;;
6342;SDS011;3204;42.698;23.298;2023-06-22T14:39:31;21.25;;;11.32;;
6342;SDS011;3204;42.698;23.298;2023-06-22T14:41:57;11.32;;;9.95;;
6342;SDS011;3204;42.698;23.298;2023-06-22T14:44:22;10.95;;;9.80;;
6342;SDS011;3204;42.698;23.298;2023-06-22T14:46:48;10.73;;;9.60;;